Sheboygan, WI (53083)

5:57 PM CST on January 24, 2017 (GMT -0600)
1- Riverwoods Drive- Weather Station (NW Corner, Town of Sheboygan) | | Change Station
Active Advisory: Winter Weather Advisory

Elev 682 ft 43.79 °N, 87.79 °W | Updated 12 minutes ago

Overcast
Overcast
37.4 °F
Feels Like 37 °F
N
0.0
Wind Variable Wind from NNW
Gusts 3.0 mph

Today
High -- | Low -- °F
--% Chance of Precip.
Yesterday
High -- | Low -- °F
Precip. -- in
Pressure 29.84 in
Visibility 10.0 miles
Clouds Overcast 1100 ft
Windchill 37 °F
Dew Point 35 °F
Humidity 89%
Rainfall 0.00 in
Snow Depth Not available.
7:15 AM 4:51 PM
Waning Crescent, 9% visible
METAR KSBM 242353Z AUTO 00000KT 10SM OVC011 02/00 A2982 RMK AO2 SLP104 T00220000 10039 20022 50001
Pressure 29.84 in
Visibility 10.0 miles
Clouds Overcast 1100 ft
Windchill 37 °F
Dew Point 35 °F
Humidity 89%
Rainfall 0.00 in
Snow Depth Not available.
7:15 AM 4:51 PM
Waning Crescent, 9% visible
METAR KSBM 242353Z AUTO 00000KT 10SM OVC011 02/00 A2982 RMK AO2 SLP104 T00220000 10039 20022 50001

Get Your Daily Forecast Email!

Thanks for signing up!

Be on the lookout for a verification email in your inbox.

You'll start receiving the daily forecast at 8 AM.

×

10-Day Weather Forecast

Almanac

Astronomy

Jan. 24, 2017 Rise Set
Actual Time
Civil Twilight
Nautical Twilight
Astronomical Twilight
Moon
Length of Visible Light
Length of Day
Tomorrow will be .
, % of the Moon is Illuminated

Today's Extremes

State Highs State Lows

Community

WunderPhotos

Upload Photos

1,962,540 photos uploaded!

WunderBlog® & News

Nearby

Air Quality

  Air Quality AQ Index Pollutant
Not available.

Snow Depth

Station Depth Elevation

Earthquake Activity

City Distance Mag. Time & Date
Minimum magnitude displayed is 2.5.

Coastal Water Temperatures

Place Temperature

Stations

Nearby Weather Stations

Station Location Temp. Windchill Dew Point Humidity Wind Precip. Elev Updated Type
                   

Watches & Warnings

Winter Weather Advisory
Issued: 3:05 PM CST Jan. 24, 2017 – National Weather Service

... Winter Weather Advisory now in effect from 11 PM this evening
to midnight CST Wednesday night...

The Winter Weather Advisory is now in effect from 11 PM this
evening to midnight CST Wednesday night.

* Timing... snow developing by late evening and continuing at times
into Wednesday evening. The snow may briefly mix with rain now
and then.

* Snow accumulations... 5 to 8 inches... the highest amounts likely
in northwest portions of the counties.

* Impacts... hazardous travel from snow covered roads likely to
affect the morning and afternoon commutes on Wednesday.

Precautionary/preparedness actions...

A Winter Weather Advisory means that periods of snow... sleet... or
freezing rain will cause travel difficulties. Be prepared for
slippery roads and limited visibilities... and use caution while
driving.


Ddv